Time;durP1;ratioP1;P1;durP2;ratioP2;P2;SDS_P1;SDS_P2;PMS_P1;PMS_P2;Temp;Humidity;BMP_temperature;BMP_pressure;BME280_temperature;BME280_humidity;BME280_pressure;Samples;Min_cycle;Max_cycle;Signal;HPM_P1;HPM_P2
2022/08/27 00:00:50;;;;;;;2.35;1.65;;;28.20;49.90;;;;;;5080895;28;20035;-66
2022/08/27 00:03:16;;;;;;;2.40;1.70;;;28.20;49.90;;;;;;5081983;28;20477;-66
2022/08/27 00:05:42;;;;;;;3.42;1.85;;;28.20;49.90;;;;;;5080892;28;20034;-66
2022/08/27 00:08:11;;;;;;;2.88;1.92;;;28.20;49.90;;;;;;5080685;28;20107;-66
2022/08/27 00:10:37;;;;;;;2.08;1.60;;;28.20;49.90;;;;;;5080821;28;20033;-65
2022/08/27 00:13:02;;;;;;;3.42;1.80;;;28.20;49.90;;;;;;5080556;28;20060;-66
2022/08/27 00:15:28;;;;;;;3.72;1.70;;;28.20;49.90;;;;;;5081366;28;20040;-65
2022/08/27 00:17:54;;;;;;;2.03;1.58;;;28.20;49.90;;;;;;5079770;28;20028;-65
2022/08/27 00:20:23;;;;;;;2.50;1.77;;;28.20;49.90;;;;;;5081428;28;20107;-65
2022/08/27 00:22:49;;;;;;;2.53;1.77;;;28.20;49.90;;;;;;5080495;28;20453;-67
2022/08/27 00:25:15;;;;;;;2.70;1.85;;;28.20;49.90;;;;;;5081125;28;20466;-65
2022/08/27 00:27:41;;;;;;;3.17;1.63;;;28.20;50.00;;;;;;5080946;28;20108;-65
2022/08/27 00:30:11;;;;;;;3.53;2.10;;;28.20;50.00;;;;;;5080210;28;20064;-66
2022/08/27 00:32:37;;;;;;;2.53;1.70;;;28.20;50.00;;;;;;5085643;28;20399;-66
2022/08/27 00:35:03;;;;;;;2.33;1.55;;;28.10;50.00;;;;;;5084232;28;20026;-65
2022/08/27 00:37:29;;;;;;;2.35;1.70;;;28.10;50.00;;;;;;5085132;28;20123;-65
2022/08/27 00:39:54;;;;;;;2.72;1.80;;;28.10;50.00;;;;;;5085535;28;20016;-65
2022/08/27 00:42:21;;;;;;;2.70;1.75;;;28.10;50.00;;;;;;5083660;28;20074;-65
2022/08/27 00:44:47;;;;;;;3.30;1.70;;;28.10;50.00;;;;;;5083607;28;20100;-67
2022/08/27 00:47:18;;;;;;;2.33;1.60;;;28.10;50.00;;;;;;5086244;28;20119;-67
2022/08/27 00:49:49;;;;;;;2.60;1.70;;;28.10;50.10;;;;;;5085191;28;20462;-67
2022/08/27 00:52:19;;;;;;;2.40;1.60;;;28.00;50.00;;;;;;5081324;28;20072;-67
2022/08/27 00:54:45;;;;;;;2.63;1.67;;;28.00;50.00;;;;;;5084639;28;20533;-66
2022/08/27 00:57:13;;;;;;;2.33;1.70;;;28.00;50.10;;;;;;5085769;28;20059;-65
2022/08/27 00:59:41;;;;;;;2.50;1.60;;;28.00;50.10;;;;;;5082790;28;20056;-65
2022/08/27 01:02:19;;;;;;;2.47;1.70;;;28.00;50.10;;;;;;5083082;28;20548;-66
2022/08/27 01:04:47;;;;;;;2.10;1.60;;;28.00;50.10;;;;;;5084563;28;20337;-65
2022/08/27 01:07:13;;;;;;;2.28;1.67;;;28.00;50.20;;;;;;5084408;28;20049;-66
2022/08/27 01:09:41;;;;;;;2.05;1.45;;;27.90;50.10;;;;;;5084491;28;20028;-67
2022/08/27 01:12:08;;;;;;;2.20;1.50;;;27.90;50.20;;;;;;5083423;28;20544;-65
2022/08/27 01:14:35;;;;;;;2.78;1.88;;;27.90;50.20;;;;;;5064899;28;20438;-66
2022/08/27 01:17:02;;;;;;;1.92;1.38;;;27.90;50.20;;;;;;5063661;28;20036;-66
2022/08/27 01:19:49;;;;;;;2.42;1.70;;;27.90;50.20;;;;;;5062671;28;20020;-66
2022/08/27 01:22:52;;;;;;;1.77;1.50;;;27.80;50.20;;;;;;5061527;28;20028;-66
2022/08/27 01:25:20;;;;;;;2.10;1.50;;;27.80;50.20;;;;;;5060957;28;20025;-66
2022/08/27 01:27:46;;;;;;;2.15;1.48;;;27.90;50.30;;;;;;5064239;28;20182;-66
2022/08/27 01:30:16;;;;;;;1.90;1.42;;;27.80;50.20;;;;;;5064159;28;20028;-66
2022/08/27 01:32:44;;;;;;;2.05;1.50;;;27.80;50.30;;;;;;5062415;28;20029;-66
2022/08/27 01:35:11;;;;;;;2.50;1.40;;;27.80;50.30;;;;;;5063236;28;20517;-67
2022/08/27 01:37:37;;;;;;;2.15;1.65;;;27.80;50.40;;;;;;5064129;28;20108;-67
2022/08/27 01:40:04;;;;;;;2.05;1.60;;;27.80;50.40;;;;;;5063283;28;20021;-67
2022/08/27 01:42:35;;;;;;;2.33;1.58;;;27.80;50.40;;;;;;5062730;28;20128;-65
2022/08/27 01:45:06;;;;;;;2.35;1.50;;;27.80;50.40;;;;;;5061753;28;20032;-66
2022/08/27 01:47:34;;;;;;;2.47;1.63;;;27.80;50.40;;;;;;5062552;28;20045;-66
2022/08/27 01:50:00;;;;;;;2.30;1.38;;;27.80;50.40;;;;;;5064859;28;20029;-66
2022/08/27 01:52:28;;;;;;;1.65;1.30;;;27.70;50.40;;;;;;5062955;28;20481;-66
2022/08/27 01:54:54;;;;;;;2.55;1.60;;;27.70;50.40;;;;;;5063515;28;20024;-66
2022/08/27 01:57:20;;;;;;;2.42;1.60;;;27.70;50.50;;;;;;5064017;28;20025;-66
2022/08/27 01:59:46;;;;;;;1.75;1.38;;;27.70;50.50;;;;;;5063361;28;20476;-66
2022/08/27 02:02:14;;;;;;;2.20;1.60;;;27.70;50.50;;;;;;5062718;28;20400;-65
2022/08/27 02:04:40;;;;;;;2.22;1.50;;;27.70;51.10;;;;;;5064302;28;20429;-64
2022/08/27 02:07:06;;;;;;;2.13;1.40;;;27.70;50.60;;;;;;5062890;28;20059;-65
2022/08/27 02:09:32;;;;;;;2.47;1.30;;;27.60;50.50;;;;;;5063100;28;20028;-67
2022/08/27 02:11:59;;;;;;;2.22;1.60;;;27.60;50.50;;;;;;5062958;28;20497;-64
2022/08/27 02:14:25;;;;;;;1.98;1.33;;;27.60;50.60;;;;;;5062500;28;20102;-65
2022/08/27 02:16:50;;;;;;;1.90;1.40;;;27.60;50.60;;;;;;5063904;28;20025;-66
2022/08/27 02:19:16;;;;;;;1.95;1.33;;;27.60;50.60;;;;;;5061075;28;20376;-66
2022/08/27 02:21:42;;;;;;;2.05;1.40;;;27.60;50.60;;;;;;5063262;28;20032;-65
2022/08/27 02:24:08;;;;;;;1.63;1.33;;;27.60;50.70;;;;;;5062395;28;20091;-66
2022/08/27 02:26:33;;;;;;;1.98;1.40;;;27.60;50.70;;;;;;5060811;28;20033;-65
2022/08/27 02:28:59;;;;;;;1.90;1.48;;;27.50;50.70;;;;;;5063484;28;20031;-65
2022/08/27 02:31:25;;;;;;;1.98;1.48;;;27.50;50.70;;;;;;5062634;28;20033;-65
2022/08/27 02:33:51;;;;;;;1.88;1.40;;;27.50;50.80;;;;;;5062160;28;20025;-66
2022/08/27 02:36:17;;;;;;;1.77;1.48;;;27.50;50.80;;;;;;5062972;28;20104;-66
2022/08/27 02:38:43;;;;;;;1.88;1.40;;;27.50;50.80;;;;;;5062655;28;20464;-67
2022/08/27 02:41:08;;;;;;;2.50;1.23;;;27.50;50.80;;;;;;5063459;28;20112;-65
2022/08/27 02:43:34;;;;;;;2.05;1.38;;;27.50;50.80;;;;;;5060233;28;20027;-65
2022/08/27 02:46:00;;;;;;;1.80;1.20;;;27.50;50.90;;;;;;5063584;28;20033;-65
2022/08/27 02:48:26;;;;;;;2.00;1.50;;;27.40;50.80;;;;;;5063421;28;20025;-65
2022/08/27 02:50:53;;;;;;;1.77;1.40;;;27.40;50.90;;;;;;5062510;28;20511;-65
2022/08/27 02:53:19;;;;;;;2.67;1.23;;;27.40;50.90;;;;;;5059469;28;20523;-65
2022/08/27 02:55:45;;;;;;;1.88;1.30;;;27.40;50.90;;;;;;5062128;28;20037;-65
2022/08/27 02:58:14;;;;;;;1.80;1.30;;;27.40;51.50;;;;;;5062230;28;20476;-65
2022/08/27 03:00:40;;;;;;;;;;;27.40;50.90;;;;;;5061428;28;20028;-66
2022/08/27 03:03:05;;;;;;;1.60;1.23;;;27.40;50.90;;;;;;5062724;28;20279;-65
2022/08/27 03:05:31;;;;;;;1.35;1.17;;;27.40;51.00;;;;;;5061640;28;20463;-65
2022/08/27 03:07:58;;;;;;;1.88;1.30;;;27.40;51.00;;;;;;5061952;28;20534;-65
2022/08/27 03:10:24;;;;;;;2.47;1.40;;;27.30;51.00;;;;;;5061204;28;20518;-67
2022/08/27 03:12:50;;;;;;;1.75;1.20;;;27.30;51.00;;;;;;5062396;28;20523;-67
2022/08/27 03:15:18;;;;;;;1.80;1.25;;;27.30;51.00;;;;;;5061029;28;20028;-66
2022/08/27 03:20:28;;;;;;;1.60;1.40;;;27.30;51.10;;;;;;5061573;28;20388;-65
2022/08/27 03:22:54;;;;;;;2.20;1.40;;;27.30;51.10;;;;;;5060682;28;20489;-65
2022/08/27 03:25:20;;;;;;;1.83;1.20;;;27.30;51.10;;;;;;5060794;28;20127;-65
2022/08/27 03:27:46;;;;;;;2.03;1.20;;;27.30;51.20;;;;;;5060602;28;20477;-65
2022/08/27 03:30:15;;;;;;;1.65;1.30;;;27.30;51.20;;;;;;5043113;28;20037;-65
2022/08/27 03:32:42;;;;;;;1.63;1.30;;;27.30;51.20;;;;;;5060281;28;20451;-67
2022/08/27 03:35:09;;;;;;;2.05;1.40;;;27.30;51.20;;;;;;5060742;28;20036;-66
2022/08/27 03:37:34;;;;;;;1.80;1.40;;;27.30;51.20;;;;;;5060875;28;20429;-66
2022/08/27 03:40:00;;;;;;;1.98;1.45;;;27.20;51.20;;;;;;5060742;28;20128;-65
2022/08/27 03:42:26;;;;;;;1.88;1.30;;;27.30;51.30;;;;;;5060695;28;20421;-66
2022/08/27 03:44:52;;;;;;;1.40;1.20;;;27.20;51.30;;;;;;5060158;28;20029;-66
2022/08/27 03:47:17;;;;;;;1.38;1.20;;;27.20;51.30;;;;;;5059961;28;20055;-66
2022/08/27 03:49:43;;;;;;;3.13;1.45;;;27.20;51.30;;;;;;5060002;28;20028;-66
2022/08/27 03:52:09;;;;;;;2.15;1.48;;;27.20;51.30;;;;;;5061218;28;20036;-66
2022/08/27 03:54:37;;;;;;;1.33;1.10;;;27.20;51.40;;;;;;5060947;28;20028;-66
2022/08/27 03:57:04;;;;;;;1.90;1.25;;;27.20;51.40;;;;;;5060825;28;20025;-67
2022/08/27 03:59:30;;;;;;;2.40;1.40;;;27.20;51.30;;;;;;5060271;28;20036;-67
2022/08/27 04:01:56;;;;;;;1.50;1.30;;;27.20;51.30;;;;;;5060342;28;20029;-67
2022/08/27 04:04:22;;;;;;;1.60;1.30;;;27.20;51.40;;;;;;5061076;28;20087;-66
2022/08/27 04:06:49;;;;;;;1.13;1.00;;;27.10;51.30;;;;;;5060936;28;20475;-66
2022/08/27 04:09:15;;;;;;;1.77;1.35;;;27.20;51.40;;;;;;5059712;28;20029;-66
2022/08/27 04:11:40;;;;;;;1.90;1.23;;;27.20;51.40;;;;;;5061581;28;20039;-66
2022/08/27 04:14:06;;;;;;;1.60;1.30;;;27.10;51.30;;;;;;5060275;28;20044;-66
2022/08/27 04:16:33;;;;;;;1.88;1.30;;;27.10;51.40;;;;;;5061711;28;20465;-65
2022/08/27 04:18:59;;;;;;;1.70;1.20;;;27.10;51.40;;;;;;5059822;28;20495;-64
2022/08/27 04:21:25;;;;;;;1.60;1.20;;;27.10;51.40;;;;;;5059612;28;20033;-64
2022/08/27 04:23:50;;;;;;;1.63;1.38;;;27.10;51.40;;;;;;5059068;28;20104;-64
2022/08/27 04:26:16;;;;;;;1.80;1.20;;;27.10;51.40;;;;;;5060413;28;20379;-65
2022/08/27 04:28:42;;;;;;;2.20;1.50;;;27.10;51.40;;;;;;5060634;28;20025;-65
2022/08/27 04:31:08;;;;;;;2.03;1.40;;;27.10;51.40;;;;;;5060241;28;20108;-65
2022/08/27 04:33:34;;;;;;;2.05;1.40;;;27.10;51.40;;;;;;5060958;28;20468;-65
2022/08/27 04:36:02;;;;;;;1.60;1.30;;;27.10;51.40;;;;;;5059989;28;20028;-65
2022/08/27 04:38:27;;;;;;;1.60;1.30;;;27.10;51.40;;;;;;5059741;28;20055;-67
2022/08/27 04:43:37;;;;;;;1.90;1.30;;;27.10;51.50;;;;;;5059719;28;20035;-65
2022/08/27 04:46:03;;;;;;;1.55;1.30;;;27.10;51.50;;;;;;5060994;28;20025;-67
2022/08/27 04:48:29;;;;;;;1.98;1.40;;;27.00;51.40;;;;;;5060220;28;20049;-65
2022/08/27 04:50:54;;;;;;;1.60;1.27;;;27.00;51.50;;;;;;5059713;28;20497;-66
2022/08/27 04:53:20;;;;;;;1.95;1.40;;;27.00;51.50;;;;;;5062017;28;20391;-66
2022/08/27 04:55:49;;;;;;;1.65;1.33;;;27.00;51.50;;;;;;5057059;28;20043;-67
2022/08/27 04:58:15;;;;;;;1.83;1.20;;;27.00;51.50;;;;;;5061215;28;20031;-65
2022/08/27 05:00:50;;;;;;;1.67;1.30;;;27.00;51.50;;;;;;5059902;28;20040;-65
2022/08/27 05:03:18;;;;;;;1.83;1.23;;;27.00;51.50;;;;;;5059690;28;20021;-66
2022/08/27 05:05:44;;;;;;;1.45;1.10;;;27.00;51.50;;;;;;5059399;28;20032;-66
2022/08/27 05:08:11;;;;;;;1.67;1.23;;;27.00;51.60;;;;;;5062003;28;20357;-66
2022/08/27 05:10:48;;;;;;;1.70;1.20;;;27.00;51.60;;;;;;5060296;28;20036;-66
2022/08/27 05:13:17;;;;;;;1.60;1.20;;;27.00;51.60;;;;;;5060917;28;20140;-66
2022/08/27 05:15:43;;;;;;;1.98;1.30;;;27.00;51.60;;;;;;5059590;28;20124;-65
2022/08/27 05:18:09;;;;;;;1.38;1.20;;;27.00;51.70;;;;;;5059817;28;20033;-66
2022/08/27 05:20:43;;;;;;;1.48;1.25;;;27.00;51.60;;;;;;5062747;28;20492;-66
2022/08/27 05:23:09;;;;;;;1.52;1.13;;;27.00;51.60;;;;;;5063581;28;20436;-66
2022/08/27 05:25:40;;;;;;;1.33;1.20;;;27.00;51.60;;;;;;5063563;28;20112;-66
2022/08/27 05:28:06;;;;;;;2.22;1.45;;;27.00;51.60;;;;;;5062137;28;20048;-66
2022/08/27 05:30:41;;;;;;;1.75;1.20;;;26.90;51.60;;;;;;5063683;28;20040;-65
2022/08/27 05:33:07;;;;;;;1.80;1.20;;;27.00;51.60;;;;;;5063371;28;20024;-65
2022/08/27 05:35:46;;;;;;;2.20;1.45;;;27.00;51.70;;;;;;5063077;28;20029;-66
2022/08/27 05:38:12;;;;;;;;;;;27.00;51.60;;;;;;5064683;28;20136;-65
2022/08/27 05:40:42;;;;;;;3.80;2.75;;;26.90;51.70;;;;;;5063043;28;20007;-66
2022/08/27 05:43:08;;;;;;;4.68;3.10;;;26.70;52.00;;;;;;5063434;28;20473;-65
2022/08/27 05:45:40;;;;;;;4.15;3.13;;;26.50;53.30;;;;;;5063401;28;20068;-65
2022/08/27 05:48:05;;;;;;;3.88;2.63;;;26.30;53.20;;;;;;5062954;28;20036;-65
2022/08/27 05:50:31;;;;;;;3.20;2.33;;;26.30;53.20;;;;;;5064203;28;20037;-65
2022/08/27 05:52:57;;;;;;;4.10;2.67;;;26.30;53.00;;;;;;5062632;28;20082;-66
2022/08/27 05:55:22;;;;;;;5.20;2.65;;;26.40;53.10;;;;;;5062181;28;20383;-66
2022/08/27 05:57:48;;;;;;;3.13;2.60;;;26.40;53.30;;;;;;5062308;28;20375;-65
2022/08/27 06:02:58;;;;;;;3.47;2.50;;;26.40;53.10;;;;;;5062668;28;20561;-66
2022/08/27 06:05:24;;;;;;;4.32;2.88;;;26.40;53.20;;;;;;5062964;28;20021;-65
2022/08/27 06:07:49;;;;;;;3.92;2.70;;;26.40;53.10;;;;;;5062491;28;20132;-66
2022/08/27 06:10:15;;;;;;;3.75;2.75;;;26.40;53.10;;;;;;5062983;28;20082;-65
2022/08/27 06:12:40;;;;;;;3.05;2.40;;;26.40;53.30;;;;;;5061980;28;20128;-65
2022/08/27 06:15:06;;;;;;;3.53;2.58;;;26.40;53.30;;;;;;5063038;28;20068;-65
2022/08/27 06:17:32;;;;;;;4.32;2.70;;;26.40;53.30;;;;;;5062490;28;20567;-65
2022/08/27 06:19:58;;;;;;;3.95;2.60;;;26.40;53.20;;;;;;5064935;28;20017;-65
2022/08/27 06:22:23;;;;;;;4.57;3.50;;;26.30;53.10;;;;;;5062083;28;20028;-65
2022/08/27 06:24:49;;;;;;;5.47;3.30;;;26.30;53.40;;;;;;5061465;28;20036;-65
2022/08/27 06:27:17;;;;;;;4.32;3.60;;;26.20;53.70;;;;;;5062598;28;20401;-65
2022/08/27 06:29:44;;;;;;;6.03;4.00;;;26.00;54.10;;;;;;5063222;28;20107;-65
2022/08/27 06:32:11;;;;;;;5.32;3.88;;;25.90;54.50;;;;;;5060409;28;20263;-65
2022/08/27 06:34:38;;;;;;;5.47;3.70;;;25.80;54.80;;;;;;5059445;28;20187;-65
2022/08/27 06:37:04;;;;;;;5.25;3.08;;;25.70;54.80;;;;;;5060888;28;20392;-64
2022/08/27 06:39:30;;;;;;;3.65;2.80;;;25.70;54.70;;;;;;5059858;28;20411;-65
2022/08/27 06:41:56;;;;;;;5.88;4.30;;;25.70;54.90;;;;;;5062963;28;20472;-65
2022/08/27 06:44:23;;;;;;;4.68;3.50;;;25.70;54.90;;;;;;5060167;28;20388;-65
2022/08/27 06:46:50;;;;;;;4.95;3.83;;;25.70;55.20;;;;;;5062212;28;20037;-66
2022/08/27 06:49:16;;;;;;;5.45;4.78;;;25.60;55.30;;;;;;5062667;28;20028;-65
2022/08/27 06:51:46;;;;;;;5.40;3.85;;;25.50;55.40;;;;;;5062470;28;20395;-65
2022/08/27 06:54:13;;;;;;;4.68;3.40;;;25.50;55.50;;;;;;5061066;28;20032;-65
2022/08/27 06:56:40;;;;;;;5.15;3.45;;;25.50;55.40;;;;;;5061959;28;20066;-65
2022/08/27 06:59:08;;;;;;;4.15;3.03;;;25.50;55.70;;;;;;5061101;28;20887;-65
2022/08/27 07:01:36;;;;;;;3.63;2.67;;;25.50;55.50;;;;;;5060563;28;20399;-66
2022/08/27 07:04:06;;;;;;;3.65;2.75;;;25.50;55.40;;;;;;5061412;28;20457;-66
2022/08/27 07:06:32;;;;;;;4.55;3.10;;;25.50;55.50;;;;;;5059839;28;20032;-65
2022/08/27 07:08:58;;;;;;;4.07;3.28;;;25.60;55.80;;;;;;5060835;28;20033;-65
2022/08/27 07:11:25;;;;;;;3.45;2.63;;;25.50;55.70;;;;;;5061836;28;20028;-65
2022/08/27 07:13:51;;;;;;;4.78;3.65;;;25.50;55.60;;;;;;5061375;28;20468;-63
2022/08/27 07:16:23;;;;;;;5.45;4.20;;;25.50;56.10;;;;;;5061889;28;20039;-64
2022/08/27 07:18:49;;;;;;;4.10;3.50;;;25.40;56.30;;;;;;5061301;28;20039;-65
2022/08/27 07:21:18;;;;;;;5.40;3.25;;;25.40;56.20;;;;;;5062551;28;20349;-65
2022/08/27 07:23:45;;;;;;;4.57;3.70;;;25.40;56.30;;;;;;5060612;28;20025;-65
2022/08/27 07:26:12;;;;;;;5.00;4.18;;;25.40;56.60;;;;;;5061729;28;20036;-65
2022/08/27 07:28:41;;;;;;;5.13;3.90;;;25.30;56.70;;;;;;5060219;28;20031;-65
2022/08/27 07:31:10;;;;;;;5.18;3.97;;;25.30;56.70;;;;;;5060127;28;20037;-65
2022/08/27 07:33:37;;;;;;;5.65;4.95;;;25.30;57.00;;;;;;5061953;28;20085;-65
2022/08/27 07:36:05;;;;;;;5.55;4.40;;;25.20;56.80;;;;;;5059957;28;20503;-65
2022/08/27 07:38:31;;;;;;;5.82;4.70;;;25.20;57.10;;;;;;5062125;28;20032;-65
2022/08/27 07:40:56;;;;;;;10.15;7.30;;;25.10;57.40;;;;;;5059947;28;20037;-65
2022/08/27 07:46:06;;;;;;;6.10;5.28;;;25.00;57.60;;;;;;5061879;28;20032;-64
2022/08/27 07:48:33;;;;;;;4.50;3.92;;;25.00;57.50;;;;;;5057677;28;20025;-65
2022/08/27 07:51:02;;;;;;;4.80;3.72;;;25.00;57.20;;;;;;5062216;28;20472;-65
2022/08/27 07:53:27;;;;;;;6.28;4.50;;;25.00;57.10;;;;;;5060616;28;20428;-65
2022/08/27 07:55:53;;;;;;;5.68;3.90;;;25.10;57.30;;;;;;5060225;28;20029;-65
2022/08/27 07:58:19;;;;;;;5.35;3.70;;;25.10;57.10;;;;;;5062409;28;20759;-65
2022/08/27 08:00:45;;;;;;;4.72;3.58;;;25.10;57.10;;;;;;5059652;28;20029;-65
2022/08/27 08:03:12;;;;;;;4.97;4.00;;;25.10;57.00;;;;;;5060627;28;20048;-66
2022/08/27 08:05:42;;;;;;;4.70;3.70;;;25.10;57.10;;;;;;5061947;28;20021;-65
2022/08/27 08:08:08;;;;;;;4.35;3.67;;;25.10;57.00;;;;;;5059442;28;20060;-65
2022/08/27 08:10:38;;;;;;;4.53;3.78;;;25.10;57.00;;;;;;5060322;28;20102;-66
2022/08/27 08:13:04;;;;;;;4.13;3.15;;;25.10;56.90;;;;;;5059482;28;20128;-64
2022/08/27 08:15:30;;;;;;;3.75;3.25;;;25.10;56.80;;;;;;5059021;28;20025;-65
2022/08/27 08:17:56;;;;;;;4.38;3.10;;;25.10;56.70;;;;;;5061795;28;20029;-66
2022/08/27 08:20:21;;;;;;;4.18;2.97;;;25.10;56.60;;;;;;5060286;28;20086;-64
2022/08/27 08:22:47;;;;;;;3.40;2.55;;;25.10;56.50;;;;;;5059135;28;20021;-66
2022/08/27 08:25:14;;;;;;;4.05;2.60;;;25.10;56.40;;;;;;5061596;28;20415;-66
2022/08/27 08:27:40;;;;;;;3.00;2.55;;;25.10;56.20;;;;;;5060887;28;20031;-66
2022/08/27 08:30:07;;;;;;;3.83;2.78;;;25.20;56.20;;;;;;5059871;28;20507;-66
2022/08/27 08:32:33;;;;;;;3.70;2.72;;;25.20;56.10;;;;;;5060579;28;20094;-66
2022/08/27 08:34:59;;;;;;;4.05;2.60;;;25.20;56.00;;;;;;5060760;28;20032;-65
2022/08/27 08:37:24;;;;;;;3.50;2.50;;;25.20;55.90;;;;;;5061837;28;20082;-66
2022/08/27 08:39:50;;;;;;;3.28;2.60;;;25.20;55.80;;;;;;5061001;28;20029;-66
2022/08/27 08:42:38;;;;;;;3.05;2.65;;;25.20;55.70;;;;;;5061175;28;20068;-66
2022/08/27 08:45:05;;;;;;;3.38;2.63;;;25.20;55.70;;;;;;5060397;28;20483;-66
2022/08/27 08:47:42;;;;;;;3.25;2.70;;;25.30;55.70;;;;;;5059118;28;20036;-66
2022/08/27 08:50:21;;;;;;;3.05;2.55;;;25.30;55.60;;;;;;5060875;28;20033;-66
2022/08/27 08:53:05;;;;;;;3.25;2.50;;;25.30;55.50;;;;;;5063794;28;20059;-65
2022/08/27 08:55:32;;;;;;;2.90;2.42;;;25.30;55.50;;;;;;5063377;28;20060;-66
2022/08/27 08:58:16;;;;;;;3.50;2.78;;;25.30;55.40;;;;;;5064892;28;20028;-65
2022/08/27 09:00:44;;;;;;;3.80;2.65;;;25.30;55.40;;;;;;5063606;28;20060;-65
2022/08/27 09:03:14;;;;;;;3.25;2.47;;;25.30;55.30;;;;;;5045797;28;20025;-66
2022/08/27 09:05:46;;;;;;;3.17;2.60;;;25.30;55.20;;;;;;5063214;28;20051;-66
2022/08/27 09:08:33;;;;;;;2.95;2.60;;;25.30;55.20;;;;;;5065086;28;20439;-65
2022/08/27 09:11:17;;;;;;;3.45;2.30;;;25.30;55.10;;;;;;5063631;28;20032;-66
2022/08/27 09:13:48;;;;;;;2.70;2.30;;;25.30;55.10;;;;;;5063883;28;20485;-65
2022/08/27 09:16:14;;;;;;;3.33;2.60;;;25.30;55.00;;;;;;5062829;28;20036;-66
2022/08/27 09:18:41;;;;;;;3.08;2.50;;;25.40;55.10;;;;;;5063868;28;20436;-66
2022/08/27 09:21:28;;;;;;;4.05;2.88;;;25.40;55.00;;;;;;5064160;28;20020;-66
2022/08/27 09:24:22;;;;;;;3.53;2.50;;;25.40;55.00;;;;;;5063307;28;20511;-66
2022/08/27 09:26:48;;;;;;;2.83;2.35;;;25.40;54.90;;;;;;5063645;28;20108;-66
2022/08/27 09:29:15;;;;;;;2.80;2.38;;;25.40;54.80;;;;;;5064238;28;20099;-65
2022/08/27 09:31:47;;;;;;;3.20;2.50;;;25.40;54.80;;;;;;5063987;28;20119;-66
2022/08/27 09:34:13;;;;;;;2.67;2.28;;;25.40;54.80;;;;;;5062781;28;20175;-66
2022/08/27 09:36:50;;;;;;;2.60;2.20;;;25.40;54.80;;;;;;5063266;28;20132;-66
2022/08/27 09:39:15;;;;;;;2.72;2.35;;;25.40;54.80;;;;;;5063616;28;20037;-65
2022/08/27 09:41:45;;;;;;;2.97;2.40;;;25.40;54.70;;;;;;5063714;28;20526;-65
2022/08/27 09:44:16;;;;;;;2.88;2.38;;;25.40;54.70;;;;;;5063339;28;20024;-65
2022/08/27 09:46:58;;;;;;;3.05;2.55;;;25.40;54.60;;;;;;5062573;28;20040;-65
2022/08/27 09:49:24;;;;;;;2.88;2.38;;;25.40;54.60;;;;;;5062947;28;20027;-65
2022/08/27 09:51:51;;;;;;;2.70;2.25;;;25.40;54.60;;;;;;5064122;28;20154;-66
2022/08/27 09:54:36;;;;;;;3.00;2.28;;;25.40;54.60;;;;;;5063483;28;20385;-65
2022/08/27 09:57:02;;;;;;;2.63;2.22;;;25.40;54.50;;;;;;5063126;28;20518;-65
2022/08/27 09:59:34;;;;;;;2.92;2.50;;;25.40;54.50;;;;;;5063542;28;20025;-66
2022/08/27 10:02:13;;;;;;;3.00;2.50;;;25.50;54.50;;;;;;5061905;28;20028;-66
2022/08/27 10:04:45;;;;;;;2.63;2.20;;;25.50;54.50;;;;;;5062610;28;20100;-65
2022/08/27 10:07:52;;;;;;;2.72;2.42;;;25.50;54.40;;;;;;5061583;28;20036;-66
2022/08/27 10:10:40;;;;;;;2.80;2.33;;;25.50;54.40;;;;;;5063267;28;20025;-66
2022/08/27 10:13:20;;;;;;;3.20;2.38;;;25.50;54.40;;;;;;5061848;28;20060;-66
2022/08/27 10:16:05;;;;;;;2.80;2.20;;;25.50;54.40;;;;;;5062770;28;20032;-65
2022/08/27 10:19:15;;;;;;;3.22;2.47;;;25.50;54.40;;;;;;5061450;28;20040;-65
2022/08/27 10:21:51;;;;;;;2.88;2.30;;;25.50;54.40;;;;;;5062372;28;20021;-65
2022/08/27 10:24:28;;;;;;;2.58;2.08;;;25.50;54.30;;;;;;5062208;28;20381;-65
2022/08/27 10:27:07;;;;;;;2.63;2.13;;;25.50;54.30;;;;;;5062041;28;20020;-64
2022/08/27 10:29:55;;;;;;;2.85;2.40;;;25.50;54.30;;;;;;5061768;28;20023;-65
2022/08/27 10:32:40;;;;;;;2.63;2.17;;;25.50;54.30;;;;;;5052608;28;20064;-68
2022/08/27 10:35:08;;;;;;;3.22;2.70;;;25.50;54.20;;;;;;5062201;28;20055;-66
2022/08/27 10:37:40;;;;;;;3.17;2.70;;;25.50;54.30;;;;;;5063519;28;20021;-67
2022/08/27 10:40:18;;;;;;;3.03;2.50;;;25.60;54.50;;;;;;5062587;28;20497;-65
2022/08/27 10:43:08;;;;;;;3.50;2.88;;;25.60;54.90;;;;;;5061445;28;20622;-64
2022/08/27 10:45:42;;;;;;;3.90;2.83;;;25.60;55.00;;;;;;5062373;28;20032;-66
2022/08/27 10:48:17;;;;;;;3.13;2.83;;;25.70;55.00;;;;;;5061449;28;20064;-66
2022/08/27 10:50:49;;;;;;;4.55;2.50;;;25.70;55.10;;;;;;5062983;28;20083;-66
2022/08/27 10:53:34;;;;;;;2.83;2.40;;;25.70;54.90;;;;;;5062433;28;20495;-66
2022/08/27 10:56:12;;;;;;;2.97;2.35;;;25.80;55.70;;;;;;5061351;28;20380;-66
2022/08/27 10:59:20;;;;;;;2.90;2.45;;;25.80;55.10;;;;;;5062109;28;20077;-66
2022/08/27 11:02:09;;;;;;;3.35;2.47;;;25.90;55.20;;;;;;5061179;28;20078;-66
2022/08/27 11:04:41;;;;;;;3.33;2.65;;;25.90;55.10;;;;;;5060806;28;20041;-65
2022/08/27 11:07:23;;;;;;;3.05;2.42;;;25.90;55.00;;;;;;5061458;28;20455;-64
2022/08/27 11:10:08;;;;;;;3.83;2.75;;;25.90;55.00;;;;;;5061587;28;20032;-64
2022/08/27 11:12:37;;;;;;;2.90;2.60;;;26.00;55.00;;;;;;5060621;28;20047;-65
2022/08/27 11:15:23;;;;;;;3.05;2.55;;;26.00;54.90;;;;;;5060509;28;20040;-65
2022/08/27 11:18:21;;;;;;;2.85;2.38;;;26.00;54.80;;;;;;5060877;28;20503;-64
2022/08/27 11:20:55;;;;;;;3.20;2.50;;;26.10;54.80;;;;;;5023341;28;20048;-64
2022/08/27 11:23:44;;;;;;;2.90;2.60;;;26.10;54.70;;;;;;5078045;28;20021;-65
2022/08/27 11:26:11;;;;;;;2.95;2.22;;;26.20;55.30;;;;;;5060395;28;20025;-65
2022/08/27 11:28:43;;;;;;;3.20;2.53;;;26.20;54.60;;;;;;5062063;28;20109;-65
2022/08/27 11:31:23;;;;;;;3.25;2.90;;;26.20;54.60;;;;;;5061492;28;20031;-65
2022/08/27 11:33:56;;;;;;;3.78;2.80;;;26.20;54.60;;;;;;5061718;28;20029;-65
2022/08/27 11:36:21;;;;;;;3.10;2.70;;;26.30;54.50;;;;;;5061209;28;20159;-65
2022/08/27 11:38:57;;;;;;;3.00;2.50;;;26.30;54.50;;;;;;5061144;28;20111;-65
2022/08/27 11:41:54;;;;;;;2.90;2.60;;;26.30;54.40;;;;;;5061335;28;20021;-64
2022/08/27 11:44:22;;;;;;;3.15;2.60;;;26.30;54.40;;;;;;5060029;28;20031;-64
2022/08/27 11:46:52;;;;;;;5.22;3.20;;;26.30;54.20;;;;;;5063503;28;20079;-64
2022/08/27 11:49:54;;;;;;;4.07;3.55;;;26.40;54.20;;;;;;5060331;28;20103;-63
2022/08/27 11:52:25;;;;;;;4.50;3.88;;;26.40;54.10;;;;;;5062063;28;20399;-65
2022/08/27 11:55:07;;;;;;;3.95;3.30;;;26.50;54.00;;;;;;5059275;28;20085;-65
2022/08/27 11:57:35;;;;;;;3.50;3.10;;;26.50;54.00;;;;;;5060854;28;20468;-64
2022/08/27 12:00:29;;;;;;;3.85;3.10;;;26.50;53.80;;;;;;5060726;28;20542;-64
2022/08/27 12:03:00;;;;;;;3.47;3.17;;;26.50;53.80;;;;;;5061181;28;20090;-64
2022/08/27 12:05:43;;;;;;;3.67;3.30;;;26.60;53.80;;;;;;5060618;28;20025;-63
2022/08/27 12:08:38;;;;;;;3.60;3.10;;;26.60;53.70;;;;;;5060872;28;20363;-64
2022/08/27 12:11:48;;;;;;;3.60;3.20;;;26.60;53.70;;;;;;5060656;28;20052;-64
2022/08/27 12:14:19;;;;;;;3.75;3.08;;;26.60;53.70;;;;;;5040803;28;20504;-66
2022/08/27 12:17:21;;;;;;;3.22;2.92;;;26.50;53.70;;;;;;5051072;28;20029;-64
2022/08/27 12:19:59;;;;;;;3.25;2.83;;;26.60;53.80;;;;;;5060092;28;20468;-64
2022/08/27 12:23:38;;;;;;;3.30;3.00;;;26.50;53.70;;;;;;5059907;28;20507;-64
2022/08/27 12:25:23;;;;;;;3.35;2.63;;;26.60;53.80;;;;;;5058958;28;20102;-64
2022/08/27 12:28:01;;;;;;;3.40;2.60;;;26.60;53.80;;;;;;5060630;28;20078;-65
2022/08/27 12:30:36;;;;;;;3.53;2.90;;;26.50;53.80;;;;;;5060756;28;20072;-64
2022/08/27 12:33:22;;;;;;;3.30;2.90;;;26.50;53.80;;;;;;5061239;28;20251;-65
2022/08/27 12:35:51;;;;;;;3.67;3.00;;;26.50;53.80;;;;;;5058752;28;20447;-65
2022/08/27 12:38:33;;;;;;;3.55;2.88;;;26.60;53.90;;;;;;5060013;28;20029;-65
2022/08/27 12:41:04;;;;;;;3.80;2.65;;;26.50;53.80;;;;;;5060232;28;20028;-64
2022/08/27 12:43:33;;;;;;;3.15;2.47;;;26.60;53.90;;;;;;5061058;28;20381;-64
2022/08/27 12:46:03;;;;;;;3.22;2.80;;;26.60;53.90;;;;;;5060742;28;20618;-64
2022/08/27 12:48:39;;;;;;;3.20;2.60;;;26.60;53.90;;;;;;5059371;28;20029;-64
2022/08/27 12:51:22;;;;;;;3.75;2.80;;;26.60;53.90;;;;;;5059735;28;20032;-65
2022/08/27 12:53:58;;;;;;;3.42;2.78;;;26.60;53.90;;;;;;5061664;28;20029;-65
2022/08/27 12:56:51;;;;;;;3.13;2.60;;;26.60;53.90;;;;;;5059575;28;20032;-64
2022/08/27 12:59:36;;;;;;;3.20;2.70;;;26.60;53.80;;;;;;5059887;28;20124;-65
2022/08/27 13:02:18;;;;;;;3.33;2.40;;;26.60;53.80;;;;;;5058962;28;20040;-65
2022/08/27 13:04:45;;;;;;;3.42;2.38;;;26.60;53.90;;;;;;5058949;28;20032;-64
2022/08/27 13:07:10;;;;;;;3.55;2.10;;;26.70;53.80;;;;;;5060439;28;20024;-64
2022/08/27 13:09:38;;;;;;;3.40;2.08;;;26.70;53.80;;;;;;5060361;28;20079;-64
2022/08/27 13:12:13;;;;;;;2.42;1.90;;;26.70;53.80;;;;;;5060120;28;20017;-64
2022/08/27 13:14:39;;;;;;;2.70;1.80;;;26.80;53.80;;;;;;5059420;28;20094;-64
2022/08/27 13:17:14;;;;;;;2.30;1.98;;;26.80;53.80;;;;;;5059182;28;20481;-64